메인 페이지
METAR-TAF:

METAR-TAF

공항 :

첸나이, 인도

첸나이 국제공항

위도: 13-00N, 경도: 080-11E, 고도: 10m

현재 날씨관측

예보는 15분 전, 00:30시(UTC)에 발표되었습니다.
무풍
온도 22°C
습도 94%
기압 1012 hPa
시정: 1800m
고도 2000ft 상공 구름 조금
박무

METAR: VOMM 180030Z 00000KT 1800 BR FEW020 22/21 Q1012 TEMPO 1500 BR

시각: 06:15 (00:45 UTC)

예보

예보는 1 시간 45분 전, 23:00시(UTC)에 발표되었습니다.
예보 대상 시간: 18일 00시부터 19일 06시까지 (UTC)
kt
시정: 3000m
고도 2000ft 상공 구름 조금
박무
일시적
18일 00시부터 18일 03시까지 (UTC)
시정: 1500m
박무
전환 중
18일 04시부터 18일 05시까지 (UTC)
10kt
시정: 4000m
연무
전환 중
18일 06시부터 18일 07시까지 (UTC)
시정: 6000m
전환 중
18일 21시부터 18일 22시까지 (UTC)
kt
시정: 3000m
박무
일시적
19일 00시부터 19일 03시까지 (UTC)
시정: 1500m
박무
전환 중
19일 04시부터 19일 05시까지 (UTC)
10kt
시정: 4000m
연무

TAF: VOMM 172300Z 1800/1906 00000KT 3000 BR FEW020 TEMPO 1800/1803 1500 BR BECMG 1804/1805 09010KT 4000 HZ BECMG 1806/1807 6000 BECMG 1821/1822 00000KT 3000 BR TEMPO 1900/1903 1500 BR BECMG 1904/1905 09010KT 4000 HZ

4,000개 이상의 공항 관측 자료 및 예보 (METAR 및 TAF 보고).

지도상에서 검색 가능한 기상관측소가 노란 점과 빨간 점으로 표시되어 있습니다.

기상관측소 명을 보려면 표시 위로 마우스를 이동하세요.

날씨 관측과 예보를 보려면 클릭하세요.

지도 변경 : 확대하려면 엑스 표시가 있는 녹색 버튼, 축소하려면 빼기 표시가 있는 녹색 버튼, 다음 페이지의 지도를 보려면 녹색 화살표를 클릭하세요.


METAR-TAF: